createdAt,value
2022-10-21T00:01:54.334Z,20.60
2022-10-21T00:04:21.617Z,21.25
2022-10-21T00:06:48.864Z,20.50
2022-10-21T00:09:16.195Z,19.75
2022-10-21T00:11:43.401Z,20.15
2022-10-21T00:14:10.655Z,20.65
2022-10-21T00:16:37.938Z,19.52
2022-10-21T00:19:05.217Z,20.75
2022-10-21T00:21:32.666Z,18.63
2022-10-21T00:23:59.951Z,19.60
2022-10-21T00:26:27.175Z,20.48
2022-10-21T00:28:57.922Z,19.40
2022-10-21T00:31:25.477Z,19.35
2022-10-21T00:33:53.020Z,19.65
2022-10-21T00:36:20.533Z,17.38
2022-10-21T00:38:49.120Z,17.15
2022-10-21T00:41:17.863Z,15.80
2022-10-21T00:44:05.035Z,15.68
2022-10-21T00:46:41.345Z,12.82
2022-10-21T00:49:11.209Z,10.85
2022-10-21T00:51:38.452Z,9.05
2022-10-21T00:54:06.427Z,9.43
2022-10-21T00:56:34.721Z,8.50
2022-10-21T00:59:03.612Z,8.50
2022-10-21T01:01:31.036Z,7.07
2022-10-21T01:03:58.440Z,8.25
2022-10-21T01:06:26.417Z,6.22
2022-10-21T01:08:54.824Z,7.00
2022-10-21T01:11:22.748Z,4.85
2022-10-21T01:13:54.650Z,4.97
2022-10-21T01:16:25.651Z,5.10
2022-10-21T01:19:04.735Z,4.78
2022-10-21T01:21:34.168Z,4.55
2022-10-21T01:24:13.828Z,4.40
2022-10-21T01:26:41.383Z,4.72
2022-10-21T01:29:08.588Z,4.53
2022-10-21T01:31:42.027Z,4.45
2022-10-21T01:34:18.648Z,3.83
2022-10-21T01:36:45.870Z,4.00
2022-10-21T01:39:19.518Z,4.25
2022-10-21T01:41:55.393Z,4.07
2022-10-21T01:44:28.745Z,4.45
2022-10-21T01:47:01.326Z,5.38
2022-10-21T01:49:57.966Z,5.70
2022-10-21T01:52:25.663Z,5.22
2022-10-21T01:54:56.134Z,5.80
2022-10-21T01:57:25.239Z,6.22
2022-10-21T01:59:52.702Z,6.60
2022-10-21T02:02:21.626Z,6.25
2022-10-21T02:04:52.003Z,6.65
2022-10-21T02:07:19.244Z,6.47
2022-10-21T02:09:46.546Z,6.85
2022-10-21T02:12:14.358Z,7.35
2022-10-21T02:14:49.601Z,6.85
2022-10-21T02:17:18.827Z,7.95
2022-10-21T02:19:46.654Z,14.50
2022-10-21T02:22:16.126Z,20.83
2022-10-21T02:24:47.019Z,15.55
2022-10-21T02:27:14.451Z,9.88
2022-10-21T02:29:43.227Z,8.15
2022-10-21T02:32:33.616Z,7.35
2022-10-21T02:35:00.923Z,6.38
2022-10-21T02:37:34.408Z,6.90
2022-10-21T02:40:14.330Z,7.10
2022-10-21T02:42:44.844Z,7.43
2022-10-21T02:45:12.211Z,8.98
2022-10-21T02:47:40.535Z,9.15
2022-10-21T02:50:08.284Z,12.07
2022-10-21T02:52:35.570Z,10.00
2022-10-21T02:55:02.909Z,9.70
2022-10-21T02:57:30.199Z,8.07
2022-10-21T02:59:57.476Z,6.90
2022-10-21T03:02:24.852Z,6.68
2022-10-21T03:04:52.208Z,6.72
2022-10-21T03:07:19.441Z,6.68
2022-10-21T03:09:46.626Z,5.20
2022-10-21T03:12:13.892Z,4.72
2022-10-21T03:14:41.080Z,4.40
2022-10-21T03:17:08.483Z,4.03
2022-10-21T03:19:35.673Z,4.22
2022-10-21T03:22:02.930Z,4.18
2022-10-21T03:24:30.230Z,4.43
2022-10-21T03:26:57.817Z,4.40
2022-10-21T03:29:25.156Z,4.65
2022-10-21T03:31:52.394Z,4.25
2022-10-21T03:34:19.924Z,4.25
2022-10-21T03:36:47.157Z,4.35
2022-10-21T03:39:14.371Z,6.38
2022-10-21T03:41:41.616Z,4.78
2022-10-21T03:44:09.113Z,4.50
2022-10-21T03:46:36.433Z,3.67
2022-10-21T03:49:04.648Z,4.38
2022-10-21T03:51:34.064Z,3.58
2022-10-21T03:54:02.142Z,4.03
2022-10-21T03:56:29.355Z,3.83
2022-10-21T03:58:58.798Z,4.18
2022-10-21T04:01:26.631Z,4.50
2022-10-21T04:03:54.245Z,3.75
2022-10-21T04:06:21.505Z,4.43
2022-10-21T04:08:48.853Z,4.22
2022-10-21T04:11:16.095Z,3.67
2022-10-21T04:13:43.308Z,3.75
2022-10-21T04:16:14.440Z,4.18
2022-10-21T04:18:41.773Z,3.55
2022-10-21T04:21:09.205Z,3.70
2022-10-21T04:23:37.033Z,3.60
2022-10-21T04:26:04.916Z,4.07
2022-10-21T04:28:32.278Z,4.10
2022-10-21T04:30:59.639Z,4.00
2022-10-21T04:33:26.893Z,3.92
2022-10-21T04:35:54.931Z,3.90
2022-10-21T04:38:22.774Z,4.38
2022-10-21T04:40:56.106Z,4.80
2022-10-21T04:43:23.369Z,4.53
2022-10-21T04:45:50.796Z,3.95
2022-10-21T04:48:18.132Z,3.85
2022-10-21T04:50:45.347Z,4.00
2022-10-21T04:53:12.566Z,5.15
2022-10-21T04:55:40.648Z,5.18
2022-10-21T04:58:07.977Z,4.75
2022-10-21T05:00:35.529Z,5.32
2022-10-21T05:03:03.122Z,5.57
2022-10-21T05:05:30.471Z,5.28
2022-10-21T05:07:57.922Z,5.10
2022-10-21T05:10:26.350Z,5.55
2022-10-21T05:12:53.934Z,4.95
2022-10-21T05:15:22.318Z,5.32
2022-10-21T05:17:49.574Z,5.38
2022-10-21T05:20:17.390Z,5.07
2022-10-21T05:22:44.639Z,5.07
2022-10-21T05:25:11.849Z,5.40
2022-10-21T05:27:39.291Z,5.53
2022-10-21T05:30:06.773Z,5.18
2022-10-21T05:32:34.654Z,5.57
2022-10-21T05:35:01.996Z,5.50
2022-10-21T05:37:29.206Z,12.77
2022-10-21T05:39:56.406Z,9.52
2022-10-21T05:42:23.923Z,7.18
2022-10-21T05:44:51.276Z,6.55
2022-10-21T05:47:18.490Z,10.40
2022-10-21T05:49:45.729Z,9.63
2022-10-21T05:52:13.564Z,8.27
2022-10-21T05:54:40.834Z,7.70
2022-10-21T05:57:08.079Z,7.47
2022-10-21T05:59:35.483Z,7.25
2022-10-21T06:02:02.773Z,7.40
2022-10-21T06:04:30.402Z,7.90
2022-10-21T06:06:59.546Z,7.60
2022-10-21T06:09:26.928Z,7.10
2022-10-21T06:11:54.254Z,6.15
2022-10-21T06:14:21.608Z,5.97
2022-10-21T06:16:48.831Z,6.80
2022-10-21T06:19:16.143Z,7.20
2022-10-21T06:21:43.377Z,8.30
2022-10-21T06:24:10.610Z,6.72
2022-10-21T06:26:38.074Z,7.10
2022-10-21T06:29:05.617Z,7.45
2022-10-21T06:31:32.901Z,8.02
2022-10-21T06:34:00.134Z,8.13
2022-10-21T06:36:27.331Z,7.50
2022-10-21T06:38:54.716Z,7.47
2022-10-21T06:41:21.902Z,7.18
2022-10-21T06:43:49.169Z,6.90
2022-10-21T06:46:16.787Z,6.85
2022-10-21T06:48:44.249Z,7.85
2022-10-21T06:51:17.416Z,7.43
2022-10-21T06:53:45.122Z,8.70
2022-10-21T06:56:19.406Z,7.70
2022-10-21T06:58:48.274Z,10.25
2022-10-21T07:01:27.639Z,7.97
2022-10-21T07:04:01.579Z,7.78
2022-10-21T07:06:29.336Z,6.80
2022-10-21T07:08:59.059Z,6.22
2022-10-21T07:11:27.190Z,6.50
2022-10-21T07:13:54.640Z,6.68
2022-10-21T07:16:21.965Z,6.65
2022-10-21T07:18:49.562Z,6.30
2022-10-21T07:21:21.184Z,6.32
2022-10-21T07:23:51.139Z,6.50
2022-10-21T07:26:19.069Z,6.13
2022-10-21T07:28:47.859Z,6.45
2022-10-21T07:31:19.208Z,6.25
2022-10-21T07:33:47.271Z,7.25
2022-10-21T07:36:16.185Z,11.45
2022-10-21T07:38:46.690Z,11.57
2022-10-21T07:41:18.219Z,8.57
2022-10-21T07:43:45.514Z,7.57
2022-10-21T07:46:12.896Z,7.32
2022-10-21T07:48:40.539Z,6.90
2022-10-21T07:51:10.218Z,7.57
2022-10-21T07:53:37.817Z,6.40
2022-10-21T07:56:06.785Z,6.85
2022-10-21T07:58:34.278Z,9.23
2022-10-21T08:01:02.732Z,9.05
2022-10-21T08:03:30.166Z,8.70
2022-10-21T08:05:57.670Z,8.38
2022-10-21T08:08:25.447Z,7.05
2022-10-21T08:10:53.385Z,6.05
2022-10-21T08:13:21.171Z,5.45
2022-10-21T08:15:49.613Z,5.72
2022-10-21T08:18:17.304Z,4.75
2022-10-21T08:20:45.951Z,4.93
2022-10-21T08:23:14.263Z,5.32
2022-10-21T08:25:47.377Z,4.82
2022-10-21T08:28:14.772Z,4.57
2022-10-21T08:30:42.779Z,4.75
2022-10-21T08:33:10.080Z,4.57
2022-10-21T08:35:37.280Z,5.13
2022-10-21T08:40:36.772Z,5.25
2022-10-21T08:43:11.218Z,6.53
2022-10-21T08:46:11.055Z,5.93
2022-10-21T08:48:40.607Z,5.50
2022-10-21T08:51:11.490Z,8.00
2022-10-21T08:53:42.005Z,6.32
2022-10-21T08:56:19.655Z,4.93
2022-10-21T08:58:48.783Z,4.72
2022-10-21T09:01:47.163Z,6.63
2022-10-21T09:04:19.490Z,4.85
2022-10-21T09:06:56.650Z,4.40
2022-10-21T09:09:49.106Z,6.18
2022-10-21T09:12:39.461Z,7.03
2022-10-21T09:15:12.884Z,5.55
2022-10-21T09:18:01.295Z,5.88
2022-10-21T09:20:37.632Z,6.00
2022-10-21T09:23:04.934Z,7.57
2022-10-21T09:25:38.492Z,6.50
2022-10-21T09:28:11.725Z,5.00
2022-10-21T09:30:40.316Z,5.28
2022-10-21T09:33:20.612Z,4.50
2022-10-21T09:35:51.707Z,5.20
2022-10-21T09:38:23.639Z,4.72
2022-10-21T09:40:52.338Z,4.35
2022-10-21T09:43:23.344Z,4.72
2022-10-21T09:45:50.634Z,5.05
2022-10-21T09:48:20.920Z,4.70
2022-10-21T09:51:00.339Z,4.82
2022-10-21T09:53:29.782Z,5.18
2022-10-21T09:56:02.013Z,4.85
2022-10-21T09:58:44.375Z,5.13
2022-10-21T10:01:21.914Z,4.40
2022-10-21T10:03:52.885Z,4.60
2022-10-21T10:06:37.213Z,4.05
2022-10-21T10:09:09.210Z,4.72
2022-10-21T10:11:48.588Z,4.00
2022-10-21T10:14:24.784Z,3.50
2022-10-21T10:16:52.084Z,3.40
2022-10-21T10:19:21.380Z,3.83
2022-10-21T10:22:10.261Z,2.95
2022-10-21T10:24:40.697Z,3.60
2022-10-21T10:27:28.211Z,2.72
2022-10-21T10:30:00.721Z,2.80
2022-10-21T10:32:31.887Z,2.85
2022-10-21T10:35:03.437Z,2.67
2022-10-21T10:37:34.733Z,2.92
2022-10-21T10:40:03.766Z,2.80
2022-10-21T10:42:34.986Z,2.90
2022-10-21T10:45:07.587Z,2.80
2022-10-21T10:47:48.551Z,3.13
2022-10-21T10:50:34.925Z,3.13
2022-10-21T10:53:21.406Z,3.13
2022-10-21T10:55:51.957Z,3.40
2022-10-21T10:58:21.125Z,3.00
2022-10-21T11:00:52.632Z,3.33
2022-10-21T11:03:26.111Z,3.30
2022-10-21T11:05:55.569Z,2.83
2022-10-21T11:08:23.548Z,2.80
2022-10-21T11:10:56.369Z,2.88
2022-10-21T11:13:24.557Z,2.75
2022-10-21T11:16:11.368Z,2.60
2022-10-21T11:18:41.771Z,2.90
2022-10-21T11:21:27.421Z,2.40
2022-10-21T11:24:00.849Z,2.67
2022-10-21T11:26:44.989Z,2.30
2022-10-21T11:29:12.229Z,2.38
2022-10-21T11:32:10.586Z,2.45
2022-10-21T11:34:39.109Z,2.40
2022-10-21T11:37:19.415Z,2.15
2022-10-21T11:39:54.015Z,2.00
2022-10-21T11:42:31.545Z,1.80
2022-10-21T11:45:02.202Z,1.77
2022-10-21T11:47:33.674Z,1.67
2022-10-21T11:50:04.360Z,1.52
2022-10-21T11:52:38.131Z,1.23
2022-10-21T11:55:24.581Z,1.25
2022-10-21T11:57:51.902Z,1.55
2022-10-21T12:00:25.182Z,1.10
2022-10-21T12:03:11.003Z,1.48
2022-10-21T12:05:47.728Z,1.27
2022-10-21T12:08:22.581Z,1.92
2022-10-21T12:10:57.255Z,1.00
2022-10-21T12:13:30.055Z,0.80
2022-10-21T12:16:06.932Z,0.95
2022-10-21T12:18:35.690Z,1.00
2022-10-21T12:21:03.129Z,0.93
2022-10-21T12:23:31.674Z,1.25
2022-10-21T12:26:28.677Z,0.90
2022-10-21T12:28:59.077Z,3.22
2022-10-21T12:31:45.351Z,12.88
2022-10-21T12:34:13.462Z,2.30
2022-10-21T12:36:40.723Z,1.13
2022-10-21T12:39:31.723Z,2.83
2022-10-21T12:42:19.567Z,3.92
2022-10-21T12:44:48.222Z,1.50
2022-10-21T12:47:26.526Z,1.23
2022-10-21T12:50:06.159Z,1.02
2022-10-21T12:52:38.370Z,0.98
2022-10-21T12:55:09.842Z,0.68
2022-10-21T12:57:39.350Z,0.80
2022-10-21T13:00:25.725Z,1.30
2022-10-21T13:03:05.137Z,1.42
2022-10-21T13:05:38.562Z,0.70
2022-10-21T13:08:22.802Z,1.30
2022-10-21T13:11:08.216Z,1.30
2022-10-21T13:13:35.797Z,0.60
2022-10-21T13:16:15.887Z,1.05
2022-10-21T13:18:53.398Z,1.55
2022-10-21T13:21:23.705Z,1.10
2022-10-21T13:23:52.654Z,1.20
2022-10-21T13:26:21.573Z,1.10
2022-10-21T13:28:57.979Z,0.70
2022-10-21T13:31:25.230Z,0.60
2022-10-21T13:33:53.640Z,1.80
2022-10-21T13:39:06.770Z,0.50
2022-10-21T13:41:34.332Z,0.70
2022-10-21T13:44:03.367Z,1.35
2022-10-21T13:46:33.242Z,1.00
2022-10-21T13:49:03.044Z,0.63
2022-10-21T13:51:35.133Z,12.60
2022-10-21T13:54:16.058Z,1.63
2022-10-21T13:56:44.314Z,0.90
2022-10-21T13:59:25.850Z,9.38
2022-10-21T14:01:54.357Z,2.63
2022-10-21T14:04:29.331Z,0.60
2022-10-21T14:07:03.620Z,0.60
2022-10-21T14:09:47.682Z,0.80
2022-10-21T14:12:33.285Z,3.00
2022-10-21T14:15:03.985Z,0.73
2022-10-21T14:17:32.220Z,0.60
2022-10-21T14:20:06.048Z,3.47
2022-10-21T14:22:33.799Z,1.15
2022-10-21T14:25:03.173Z,0.80
2022-10-21T14:27:32.263Z,0.50
2022-10-21T14:30:02.980Z,0.75
2022-10-21T14:32:30.536Z,1.58
2022-10-21T14:35:01.058Z,0.50
2022-10-21T14:37:28.390Z,0.57
2022-10-21T14:40:10.154Z,0.90
2022-10-21T14:42:40.179Z,0.77
2022-10-21T14:45:07.870Z,0.70
2022-10-21T14:47:35.160Z,0.60
2022-10-21T14:50:04.267Z,0.60
2022-10-21T14:52:31.653Z,0.50
2022-10-21T14:55:01.218Z,0.60
2022-10-21T14:57:47.790Z,0.77
2022-10-21T15:00:27.578Z,0.73
2022-10-21T15:02:57.727Z,0.63
2022-10-21T15:05:28.181Z,0.70
2022-10-21T15:08:15.051Z,0.90
2022-10-21T15:10:42.823Z,0.80
2022-10-21T15:13:19.990Z,0.60
2022-10-21T15:15:52.587Z,0.70
2022-10-21T15:18:33.959Z,0.65
2022-10-21T15:21:03.059Z,0.50
2022-10-21T15:23:32.174Z,0.65
2022-10-21T15:26:01.446Z,0.70
2022-10-21T15:28:30.349Z,0.70
2022-10-21T15:30:59.539Z,0.70
2022-10-21T15:33:27.747Z,0.85
2022-10-21T15:36:05.235Z,0.80
2022-10-21T15:38:32.568Z,0.60
2022-10-21T15:40:59.795Z,0.90
2022-10-21T15:43:27.096Z,1.10
2022-10-21T15:45:54.469Z,1.13
2022-10-21T15:48:23.349Z,3.63
2022-10-21T15:50:50.613Z,4.05
2022-10-21T15:53:17.816Z,2.17
2022-10-21T15:55:45.075Z,1.30
2022-10-21T15:58:12.590Z,1.05
2022-10-21T16:00:41.050Z,1.70
2022-10-21T16:03:08.939Z,1.10
2022-10-21T16:05:36.268Z,1.40
2022-10-21T16:08:03.757Z,1.40
2022-10-21T16:10:32.723Z,1.30
2022-10-21T16:13:00.171Z,1.30
2022-10-21T16:15:27.504Z,1.30
2022-10-21T16:17:56.677Z,1.38
2022-10-21T16:20:29.288Z,1.30
2022-10-21T16:23:00.543Z,1.08
2022-10-21T16:25:30.543Z,1.90
2022-10-21T16:27:57.927Z,1.75
2022-10-21T16:30:27.297Z,1.30
2022-10-21T16:32:54.599Z,1.50
2022-10-21T16:35:22.770Z,1.38
2022-10-21T16:37:50.323Z,3.80
2022-10-21T16:40:17.569Z,1.50
2022-10-21T16:42:48.328Z,1.42
2022-10-21T16:45:15.677Z,1.10
2022-10-21T16:47:48.176Z,1.20
2022-10-21T16:50:20.008Z,1.40
2022-10-21T16:52:47.629Z,1.17
2022-10-21T16:55:15.458Z,1.65
2022-10-21T16:57:43.076Z,1.90
2022-10-21T17:00:11.403Z,1.90
2022-10-21T17:02:40.435Z,2.17
2022-10-21T17:05:08.644Z,3.08
2022-10-21T17:07:36.686Z,2.70
2022-10-21T17:10:04.500Z,4.30
2022-10-21T17:12:33.434Z,4.82
2022-10-21T17:15:01.180Z,4.70
2022-10-21T17:17:28.614Z,4.70
2022-10-21T17:19:55.961Z,4.50
2022-10-21T17:22:23.387Z,5.20
2022-10-21T17:24:50.761Z,8.73
2022-10-21T17:27:19.649Z,8.57
2022-10-21T17:29:47.268Z,8.15
2022-10-21T17:32:14.653Z,8.75
2022-10-21T17:34:42.644Z,9.30
2022-10-21T17:37:10.710Z,9.43
2022-10-21T17:39:37.993Z,10.20
2022-10-21T17:42:05.444Z,10.55
2022-10-21T17:44:32.920Z,11.02
2022-10-21T17:47:00.217Z,11.80
2022-10-21T17:49:27.780Z,11.80
2022-10-21T17:51:54.991Z,12.88
2022-10-21T17:54:26.087Z,15.15
2022-10-21T17:56:56.852Z,10.48
2022-10-21T17:59:24.575Z,19.27
2022-10-21T18:01:54.867Z,11.45
2022-10-21T18:04:22.078Z,11.35
2022-10-21T18:06:49.650Z,12.70
2022-10-21T18:09:18.292Z,12.50
2022-10-21T18:11:45.629Z,12.82
2022-10-21T18:14:14.346Z,11.93
2022-10-21T18:16:41.613Z,11.70
2022-10-21T18:19:09.269Z,12.07
2022-10-21T18:21:36.908Z,11.38
2022-10-21T18:24:07.473Z,12.05
2022-10-21T18:26:37.554Z,12.40
2022-10-21T18:29:05.519Z,12.80
2022-10-21T18:31:33.810Z,12.32
2022-10-21T18:34:01.873Z,13.13
2022-10-21T18:36:29.239Z,12.60
2022-10-21T18:38:57.825Z,12.98
2022-10-21T18:41:25.142Z,12.73
2022-10-21T18:43:53.809Z,13.52
2022-10-21T18:46:22.167Z,13.65
2022-10-21T18:48:49.713Z,13.60
2022-10-21T18:51:23.245Z,14.55
2022-10-21T18:53:52.867Z,15.32
2022-10-21T18:56:21.382Z,14.95
2022-10-21T18:58:48.783Z,14.52
2022-10-21T19:01:16.284Z,14.73
2022-10-21T19:03:44.837Z,15.20
2022-10-21T19:06:19.933Z,15.35
2022-10-21T19:08:47.321Z,15.40
2022-10-21T19:11:14.911Z,16.40
2022-10-21T19:13:42.211Z,16.15
2022-10-21T19:16:09.717Z,15.52
2022-10-21T19:18:37.893Z,15.38
2022-10-21T19:21:05.652Z,16.75
2022-10-21T19:23:33.846Z,16.92
2022-10-21T19:26:02.620Z,16.55
2022-10-21T19:28:29.907Z,17.02
2022-10-21T19:30:57.171Z,17.67
2022-10-21T19:33:24.356Z,18.02
2022-10-21T19:35:51.958Z,17.48
2022-10-21T19:38:26.405Z,16.98
2022-10-21T19:41:15.230Z,17.40
2022-10-21T19:43:42.831Z,17.95
2022-10-21T19:46:11.445Z,17.17
2022-10-21T19:48:38.808Z,16.98
2022-10-21T19:51:07.981Z,17.20
2022-10-21T19:53:36.917Z,17.05
2022-10-21T19:56:06.303Z,15.90
2022-10-21T19:58:34.430Z,15.02
2022-10-21T20:01:03.071Z,14.65
2022-10-21T20:03:30.954Z,14.93
2022-10-21T20:05:58.463Z,13.93
2022-10-21T20:11:01.313Z,12.95
2022-10-21T20:13:29.086Z,13.15
2022-10-21T20:15:56.390Z,12.98
2022-10-21T20:18:26.483Z,12.77
2022-10-21T20:20:55.027Z,12.63
2022-10-21T20:23:22.673Z,12.40
2022-10-21T20:25:51.124Z,12.88
2022-10-21T20:28:18.453Z,12.13
2022-10-21T20:30:45.905Z,11.52
2022-10-21T20:33:13.294Z,12.07
2022-10-21T20:35:41.751Z,10.85
2022-10-21T20:38:10.233Z,11.23
2022-10-21T20:40:37.565Z,11.57
2022-10-21T20:43:05.164Z,10.82
2022-10-21T20:45:34.441Z,18.80
2022-10-21T20:48:02.056Z,14.07
2022-10-21T20:50:29.592Z,11.95
2022-10-21T20:52:56.978Z,13.05
2022-10-21T20:55:24.228Z,10.68
2022-10-21T20:57:51.396Z,9.27
2022-10-21T21:00:19.100Z,9.00
2022-10-21T21:02:46.459Z,8.45
2022-10-21T21:05:15.959Z,9.25
2022-10-21T21:07:43.620Z,9.52
2022-10-21T21:10:11.048Z,9.43
2022-10-21T21:12:38.909Z,10.68
2022-10-21T21:15:06.535Z,11.27
2022-10-21T21:17:33.840Z,10.30
2022-10-21T21:20:01.112Z,9.70
2022-10-21T21:22:28.348Z,9.07
2022-10-21T21:24:55.797Z,9.82
2022-10-21T21:27:23.098Z,9.55
2022-10-21T21:29:50.494Z,10.20
2022-10-21T21:32:19.054Z,10.13
2022-10-21T21:34:49.124Z,10.35
2022-10-21T21:37:16.350Z,10.20
2022-10-21T21:39:43.596Z,10.68
2022-10-21T21:42:10.877Z,11.30
2022-10-21T21:44:38.121Z,10.68
2022-10-21T21:47:05.754Z,10.20
2022-10-21T21:49:32.961Z,9.90
2022-10-21T21:52:00.382Z,10.07
2022-10-21T21:54:27.718Z,10.15
2022-10-21T21:57:10.308Z,10.13
2022-10-21T21:59:42.269Z,8.73
2022-10-21T22:02:10.060Z,11.60
2022-10-21T22:04:39.338Z,11.07
2022-10-21T22:07:06.631Z,11.45
2022-10-21T22:09:33.995Z,11.15
2022-10-21T22:12:01.229Z,10.20
2022-10-21T22:14:28.505Z,9.35
2022-10-21T22:16:55.741Z,7.03
2022-10-21T22:19:22.913Z,6.10
2022-10-21T22:21:50.231Z,3.40
2022-10-21T22:24:17.786Z,1.80
2022-10-21T22:26:46.164Z,3.00
2022-10-21T22:29:13.405Z,1.95
2022-10-21T22:31:40.715Z,1.42
2022-10-21T22:34:10.983Z,1.35
2022-10-21T22:36:39.370Z,1.77
2022-10-21T22:39:06.683Z,2.10
2022-10-21T22:41:34.209Z,1.30
2022-10-21T22:44:01.681Z,1.50
2022-10-21T22:46:34.451Z,2.40
2022-10-21T22:49:02.610Z,1.70
2022-10-21T22:51:30.051Z,2.55
2022-10-21T22:53:57.433Z,12.23
2022-10-21T22:56:25.435Z,3.58
2022-10-21T22:58:52.815Z,2.07
2022-10-21T23:01:20.582Z,1.70
2022-10-21T23:03:47.832Z,11.83
2022-10-21T23:06:15.109Z,5.17
2022-10-21T23:08:42.394Z,5.05
2022-10-21T23:11:09.902Z,9.10
2022-10-21T23:13:37.112Z,2.80
2022-10-21T23:16:04.859Z,1.60
2022-10-21T23:18:32.097Z,5.37
2022-10-21T23:20:59.562Z,1.20
2022-10-21T23:23:26.816Z,5.10
2022-10-21T23:25:54.192Z,1.27
2022-10-21T23:28:21.472Z,1.07
2022-10-21T23:30:49.212Z,2.97
2022-10-21T23:33:16.568Z,7.40
2022-10-21T23:35:43.749Z,8.65
2022-10-21T23:38:11.010Z,3.20
2022-10-21T23:40:38.428Z,4.30
2022-10-21T23:43:05.909Z,5.17
2022-10-21T23:45:33.230Z,6.00
2022-10-21T23:48:00.666Z,4.73
2022-10-21T23:50:28.376Z,1.30
2022-10-21T23:52:55.675Z,3.30
2022-10-21T23:55:22.981Z,2.00
2022-10-21T23:57:50.321Z,4.23
